Time;durP1;ratioP1;P1;durP2;ratioP2;P2;SDS_P1;SDS_P2;PMS_P1;PMS_P2;Temp;Humidity;BMP_temperature;BMP_pressure;BME280_temperature;BME280_humidity;BME280_pressure;Samples;Min_cycle;Max_cycle;Signal;HPM_P1;HPM_P2
2021/08/01 00:01:48;;;;;;;6.80;5.63;;;16.30;99.90;;;;;;5033372;28;20385;-50
2021/08/01 00:04:15;;;;;;;6.50;5.67;;;16.30;99.90;;;;;;5030959;28;20205;-50
2021/08/01 00:06:42;;;;;;;10.07;5.53;;;16.40;99.90;;;;;;5035011;28;20624;-50
2021/08/01 00:09:09;;;;;;;9.73;6.33;;;16.20;99.90;;;;;;5042745;28;20677;-49
2021/08/01 00:11:36;;;;;;;7.77;6.13;;;16.20;99.90;;;;;;5041368;28;20791;-50
2021/08/01 00:14:03;;;;;;;7.43;6.53;;;16.20;99.90;;;;;;5037723;28;20285;-51
2021/08/01 00:16:30;;;;;;;7.20;6.03;;;16.20;99.90;;;;;;5038115;28;20223;-51
2021/08/01 00:18:57;;;;;;;8.03;6.27;;;16.20;99.90;;;;;;5037851;28;20195;-50
2021/08/01 00:21:24;;;;;;;10.97;7.20;;;16.20;99.90;;;;;;5032794;28;20229;-50
2021/08/01 00:23:51;;;;;;;10.50;6.40;;;16.00;99.90;;;;;;5038305;28;20202;-50
2021/08/01 00:26:18;;;;;;;7.77;6.70;;;16.00;99.90;;;;;;5041606;28;20240;-50
2021/08/01 00:28:45;;;;;;;7.80;6.63;;;16.20;99.90;;;;;;5041061;28;20244;-50
2021/08/01 00:31:12;;;;;;;8.83;6.70;;;16.20;99.90;;;;;;5038506;28;20316;-51
2021/08/01 00:33:39;;;;;;;8.97;6.40;;;16.20;99.90;;;;;;5034395;28;20206;-50
2021/08/01 00:36:06;;;;;;;9.60;6.77;;;16.10;99.90;;;;;;5041093;28;20288;-50
2021/08/01 00:38:32;;;;;;;7.60;6.80;;;16.20;99.90;;;;;;5038406;28;20205;-50
2021/08/01 00:41:01;;;;;;;7.90;6.93;;;16.20;99.90;;;;;;5039247;28;20303;-50
2021/08/01 00:43:28;;;;;;;8.43;7.07;;;16.00;99.90;;;;;;5038168;28;20833;-50
2021/08/01 00:45:55;;;;;;;7.70;6.70;;;16.10;99.90;;;;;;5030656;28;20238;-51
2021/08/01 00:48:24;;;;;;;7.50;6.67;;;16.10;99.90;;;;;;5031088;28;20598;-51
2021/08/01 00:50:51;;;;;;;9.00;6.27;;;16.00;99.90;;;;;;5040200;28;20222;-50
2021/08/01 00:53:18;;;;;;;7.57;6.60;;;16.10;99.90;;;;;;5036997;28;20290;-51
2021/08/01 00:55:45;;;;;;;7.43;6.57;;;16.10;99.90;;;;;;5040709;28;20256;-50
2021/08/01 00:58:11;;;;;;;9.13;7.50;;;16.00;99.90;;;;;;5039140;28;20705;-50
2021/08/01 01:03:25;;;;;;;8.80;7.30;;;16.00;99.90;;;;;;5031109;28;20273;-50
2021/08/01 01:06:05;;;;;;;8.10;6.10;;;16.10;99.90;;;;;;5033623;28;20304;-50
2021/08/01 01:08:38;;;;;;;7.90;6.70;;;16.20;99.90;;;;;;5036478;28;20255;-50
2021/08/01 01:11:08;;;;;;;9.73;6.77;;;16.10;99.90;;;;;;5041083;28;20660;-50
2021/08/01 01:13:43;;;;;;;8.10;7.00;;;16.10;99.90;;;;;;5036905;28;20646;-51
2021/08/01 01:16:10;;;;;;;8.67;6.73;;;16.10;99.90;;;;;;5035466;28;20214;-50
2021/08/01 01:18:48;;;;;;;7.20;6.50;;;16.10;99.90;;;;;;5037003;28;20209;-50
2021/08/01 01:21:34;;;;;;;9.97;7.63;;;15.90;99.90;;;;;;5037934;28;20234;-50
2021/08/01 01:24:03;;;;;;;8.13;6.57;;;15.80;99.90;;;;;;5037607;28;20631;-50
2021/08/01 01:26:38;;;;;;;9.23;7.20;;;15.90;99.90;;;;;;5043973;28;20226;-50
2021/08/01 01:29:20;;;;;;;10.30;8.30;;;15.80;99.90;;;;;;5037064;28;20241;-50
2021/08/01 01:31:47;;;;;;;8.43;7.23;;;15.90;99.90;;;;;;5038552;28;20636;-50
2021/08/01 01:34:20;;;;;;;10.47;7.57;;;15.80;99.90;;;;;;5034185;28;20210;-50
2021/08/01 01:36:49;;;;;;;8.93;7.77;;;15.70;99.90;;;;;;5041440;28;20237;-50
2021/08/01 01:39:18;;;;;;;9.37;8.03;;;15.70;99.90;;;;;;5038213;28;20725;-50
2021/08/01 01:41:46;;;;;;;14.53;7.90;;;15.70;99.90;;;;;;5038346;28;20228;-50
2021/08/01 01:44:14;;;;;;;8.93;7.43;;;15.80;99.90;;;;;;5033656;28;20199;-50
2021/08/01 01:46:41;;;;;;;7.87;6.93;;;15.90;99.90;;;;;;5040726;28;20293;-51
2021/08/01 01:49:10;;;;;;;10.03;7.73;;;15.90;99.90;;;;;;5030111;28;20301;-50
2021/08/01 01:51:38;;;;;;;9.87;7.80;;;15.90;99.90;;;;;;5033679;28;20305;-50
2021/08/01 01:54:07;;;;;;;8.37;7.47;;;15.80;99.90;;;;;;5030503;28;20197;-50
2021/08/01 01:56:36;;;;;;;10.57;8.23;;;15.70;99.90;;;;;;5036348;28;20714;-50
2021/08/01 01:59:03;;;;;;;10.43;8.20;;;15.80;99.90;;;;;;5040472;28;20286;-50
2021/08/01 02:01:30;;;;;;;8.40;7.53;;;15.70;99.90;;;;;;5037233;28;20306;-50
2021/08/01 02:03:57;;;;;;;9.53;8.53;;;15.60;99.90;;;;;;5033048;28;20350;-50
2021/08/01 02:06:23;;;;;;;9.70;7.70;;;15.70;99.90;;;;;;5036623;28;20289;-50
2021/08/01 02:09:14;;;;;;;10.70;7.70;;;15.90;99.90;;;;;;5042197;28;20891;-50
2021/08/01 02:12:02;;;;;;;11.00;8.07;;;15.90;99.90;;;;;;5032307;28;20221;-50
2021/08/01 02:14:42;;;;;;;9.10;7.63;;;15.80;99.90;;;;;;5034456;28;20191;-50
2021/08/01 02:17:13;;;;;;;9.03;7.80;;;15.60;99.90;;;;;;5037337;28;20221;-50
2021/08/01 02:19:44;;;;;;;10.10;8.03;;;15.60;99.90;;;;;;5034667;28;20315;-50
2021/08/01 02:22:12;;;;;;;10.83;8.67;;;15.60;99.90;;;;;;5036009;28;20294;-50
2021/08/01 02:24:41;;;;;;;9.30;7.43;;;15.70;99.90;;;;;;5032601;28;20204;-50
2021/08/01 02:27:08;;;;;;;11.33;7.90;;;15.50;99.90;;;;;;5036878;28;20240;-50
2021/08/01 02:29:36;;;;;;;9.07;7.87;;;15.60;99.90;;;;;;5039380;28;20266;-50
2021/08/01 02:32:04;;;;;;;11.87;8.50;;;15.50;99.90;;;;;;5037150;28;20363;-50
2021/08/01 02:34:31;;;;;;;11.33;7.60;;;15.50;99.90;;;;;;5034837;28;20600;-50
2021/08/01 02:36:59;;;;;;;10.37;8.70;;;15.40;99.90;;;;;;5035267;28;21586;-50
2021/08/01 02:39:26;;;;;;;11.23;8.27;;;15.50;99.90;;;;;;5033430;28;20666;-50
2021/08/01 02:41:53;;;;;;;13.27;8.60;;;15.40;99.90;;;;;;5036568;28;20301;-50
2021/08/01 02:44:35;;;;;;;12.27;8.87;;;15.30;99.90;;;;;;5033917;28;20273;-50
2021/08/01 02:47:04;;;;;;;12.47;7.97;;;15.30;99.90;;;;;;5036299;28;20209;-50
2021/08/01 02:49:36;;;;;;;10.87;7.80;;;15.20;99.90;;;;;;5036956;28;20737;-50
2021/08/01 02:52:05;;;;;;;9.97;7.80;;;15.20;99.90;;;;;;5035931;28;20260;-50
2021/08/01 02:54:35;;;;;;;10.80;8.77;;;15.20;99.90;;;;;;5037884;28;20721;-50
2021/08/01 02:57:05;;;;;;;11.03;8.53;;;15.10;99.90;;;;;;5042855;28;20205;-50
2021/08/01 02:59:34;;;;;;;12.13;8.07;;;15.10;99.90;;;;;;5037952;28;20606;-50
2021/08/01 03:02:02;;;;;;;11.77;8.63;;;15.20;99.90;;;;;;5031723;28;20704;-50
2021/08/01 03:04:29;;;;;;;14.10;8.07;;;15.20;99.90;;;;;;5030993;28;20207;-50
2021/08/01 03:06:57;;;;;;;15.93;8.30;;;15.20;99.90;;;;;;5040587;28;20243;-50
2021/08/01 03:09:24;;;;;;;13.23;8.63;;;15.20;99.90;;;;;;5041222;28;20364;-50
2021/08/01 03:11:51;;;;;;;15.80;8.07;;;15.10;99.90;;;;;;5037017;28;20700;-50
2021/08/01 03:14:18;;;;;;;12.73;8.73;;;15.10;99.90;;;;;;5029434;28;20334;-50
2021/08/01 03:16:45;;;;;;;11.33;8.10;;;15.00;99.90;;;;;;5040899;28;20201;-50
2021/08/01 03:19:12;;;;;;;12.40;8.13;;;15.10;99.90;;;;;;5034027;28;20211;-50
2021/08/01 03:21:38;;;;;;;15.70;9.43;;;15.10;99.90;;;;;;5038322;28;20304;-50
2021/08/01 03:24:05;;;;;;;13.50;8.03;;;15.00;99.90;;;;;;5037543;28;20295;-50
2021/08/01 03:26:32;;;;;;;12.10;8.80;;;15.00;99.90;;;;;;5037385;28;20667;-50
2021/08/01 03:28:59;;;;;;;15.00;8.70;;;15.10;99.90;;;;;;5032771;28;20299;-50
2021/08/01 03:31:25;;;;;;;15.50;7.67;;;15.10;99.90;;;;;;5035270;28;20315;-50
2021/08/01 03:33:52;;;;;;;11.13;8.50;;;15.10;99.90;;;;;;5032886;28;20200;-50
2021/08/01 03:36:19;;;;;;;15.27;8.50;;;15.10;99.90;;;;;;5031950;28;20246;-50
2021/08/01 03:38:46;;;;;;;12.93;8.40;;;15.10;99.90;;;;;;5029383;28;20315;-50
2021/08/01 03:41:13;;;;;;;13.40;8.60;;;15.10;99.90;;;;;;5037740;28;20349;-50
2021/08/01 03:43:39;;;;;;;14.33;8.53;;;15.10;99.90;;;;;;5031874;28;20194;-50
2021/08/01 03:46:06;;;;;;;15.50;8.27;;;15.00;99.90;;;;;;5035057;28;20347;-50
2021/08/01 03:48:33;;;;;;;18.90;8.70;;;14.90;99.90;;;;;;5036966;28;20208;-50
2021/08/01 03:51:00;;;;;;;12.83;7.73;;;14.90;99.90;;;;;;5031286;28;20220;-50
2021/08/01 03:53:29;;;;;;;15.43;8.93;;;14.80;99.90;;;;;;5034059;28;20825;-50
2021/08/01 03:55:56;;;;;;;16.80;8.67;;;15.00;99.90;;;;;;5039145;28;20216;-50
2021/08/01 03:58:23;;;;;;;11.27;8.33;;;15.00;99.90;;;;;;5030644;28;20687;-50
2021/08/01 04:00:50;;;;;;;11.40;8.40;;;15.00;99.90;;;;;;5027970;28;20211;-50
2021/08/01 04:03:17;;;;;;;12.97;9.13;;;14.80;99.90;;;;;;5031299;28;20215;-50
2021/08/01 04:05:44;;;;;;;11.70;8.43;;;14.90;99.90;;;;;;5033463;28;20644;-50
2021/08/01 04:08:10;;;;;;;15.07;8.47;;;14.90;99.90;;;;;;5036489;28;20639;-50
2021/08/01 04:10:37;;;;;;;15.13;9.03;;;14.80;99.90;;;;;;5036544;28;20232;-50
2021/08/01 04:13:04;;;;;;;12.73;9.50;;;14.70;99.90;;;;;;5035319;28;20431;-50
2021/08/01 04:15:31;;;;;;;12.03;8.17;;;14.60;99.90;;;;;;5033027;28;20319;-50
2021/08/01 04:18:02;;;;;;;14.10;9.33;;;14.60;99.90;;;;;;5038124;28;20288;-50
2021/08/01 04:20:29;;;;;;;13.17;8.20;;;14.60;99.90;;;;;;5029787;28;20476;-50
2021/08/01 04:22:56;;;;;;;16.10;8.90;;;14.60;99.90;;;;;;5037456;28;20696;-50
2021/08/01 04:25:23;;;;;;;13.80;9.10;;;14.70;99.90;;;;;;5034731;28;20332;-50
2021/08/01 04:27:50;;;;;;;13.67;9.10;;;14.70;99.90;;;;;;5040403;28;20656;-50
2021/08/01 04:30:17;;;;;;;12.87;9.23;;;14.70;99.90;;;;;;5030836;28;20197;-50
2021/08/01 04:32:43;;;;;;;13.93;9.57;;;14.70;99.90;;;;;;5035772;28;20236;-50
2021/08/01 04:35:10;;;;;;;16.83;10.07;;;14.70;99.90;;;;;;5032688;28;20228;-50
2021/08/01 04:37:37;;;;;;;17.07;11.13;;;14.70;99.90;;;;;;5040122;28;20664;-50
2021/08/01 04:40:05;;;;;;;17.03;10.50;;;14.60;99.90;;;;;;5032629;28;20293;-50
2021/08/01 04:42:32;;;;;;;22.13;13.00;;;14.70;99.90;;;;;;5032517;28;20788;-49
2021/08/01 04:44:59;;;;;;;24.17;12.10;;;14.70;99.90;;;;;;5032648;28;20201;-50
2021/08/01 04:47:26;;;;;;;24.47;13.77;;;14.60;99.90;;;;;;5037779;28;20580;-50
2021/08/01 04:49:53;;;;;;;31.07;15.17;;;14.70;99.90;;;;;;5038189;28;20207;-50
2021/08/01 04:52:20;;;;;;;34.50;16.37;;;14.60;99.90;;;;;;5037861;28;20270;-50
2021/08/01 04:54:47;;;;;;;33.40;15.83;;;14.60;99.90;;;;;;5030912;28;20358;-50
2021/08/01 04:57:14;;;;;;;28.47;15.40;;;14.60;99.90;;;;;;5044546;28;20283;-50
2021/08/01 04:59:40;;;;;;;36.70;16.97;;;14.60;99.90;;;;;;5043325;28;20251;-50
2021/08/01 05:02:07;;;;;;;35.93;17.53;;;14.70;99.90;;;;;;5042443;28;20243;-51
2021/08/01 05:04:34;;;;;;;41.60;18.23;;;14.80;99.90;;;;;;5038077;28;20238;-50
2021/08/01 05:07:01;;;;;;;38.23;17.47;;;14.70;99.90;;;;;;5040862;28;20677;-50
2021/08/01 05:09:28;;;;;;;29.77;17.27;;;14.70;99.90;;;;;;5039530;28;20354;-50
2021/08/01 05:11:55;;;;;;;44.67;18.60;;;14.60;99.90;;;;;;5038720;28;20265;-50
2021/08/01 05:14:21;;;;;;;36.53;18.93;;;14.70;99.90;;;;;;5037965;28;20595;-50
2021/08/01 05:16:48;;;;;;;44.47;18.20;;;14.80;99.90;;;;;;5037454;28;20616;-50
2021/08/01 05:19:15;;;;;;;50.07;19.17;;;14.80;99.90;;;;;;5038015;28;20208;-50
2021/08/01 05:21:42;;;;;;;39.83;18.83;;;14.90;99.90;;;;;;5041175;28;20645;-50
2021/08/01 05:24:09;;;;;;;41.07;18.80;;;14.80;99.90;;;;;;5036799;28;20236;-50
2021/08/01 05:26:36;;;;;;;41.90;20.13;;;14.70;99.90;;;;;;5037839;28;20230;-50
2021/08/01 05:29:03;;;;;;;38.07;19.47;;;14.70;99.90;;;;;;5035923;28;20302;-50
2021/08/01 05:31:30;;;;;;;36.27;17.87;;;14.80;99.90;;;;;;5035857;28;20235;-50
2021/08/01 05:33:57;;;;;;;44.00;20.50;;;14.80;99.90;;;;;;5034860;28;20917;-50
2021/08/01 05:36:23;;;;;;;45.83;21.70;;;14.90;99.90;;;;;;5033252;28;20615;-50
2021/08/01 05:38:50;;;;;;;40.77;18.47;;;14.80;99.90;;;;;;5038804;28;20232;-50
2021/08/01 05:41:17;;;;;;;45.67;20.83;;;14.90;99.90;;;;;;5034555;28;20291;-50
2021/08/01 05:43:44;;;;;;;42.03;19.50;;;14.80;99.90;;;;;;5032971;28;20295;-50
2021/08/01 05:46:11;;;;;;;45.93;18.77;;;14.90;99.90;;;;;;5033446;28;20618;-50
2021/08/01 05:48:38;;;;;;;53.13;22.53;;;15.10;99.90;;;;;;5039554;28;20204;-50
2021/08/01 05:51:07;;;;;;;52.03;21.77;;;15.00;99.90;;;;;;5031337;28;20308;-50
2021/08/01 05:53:34;;;;;;;47.23;21.97;;;15.00;99.90;;;;;;5037831;28;20236;-50
2021/08/01 05:56:11;;;;;;;47.43;20.00;;;15.00;99.90;;;;;;5037331;28;20203;-50
2021/08/01 05:58:39;;;;;;;40.57;20.67;;;15.10;99.90;;;;;;5043420;28;20262;-50
2021/08/01 06:01:16;;;;;;;50.63;21.37;;;15.00;99.90;;;;;;5027953;28;20275;-50
2021/08/01 06:03:44;;;;;;;47.57;22.07;;;15.00;99.90;;;;;;5035930;28;20964;-50
2021/08/01 06:06:11;;;;;;;51.97;22.93;;;15.10;99.90;;;;;;5031880;28;20614;-50
2021/08/01 06:08:43;;;;;;;45.80;21.50;;;15.00;99.90;;;;;;5041754;28;20664;-50
2021/08/01 06:11:10;;;;;;;49.67;22.17;;;15.00;99.90;;;;;;5041917;28;20571;-50
2021/08/01 06:13:38;;;;;;;49.53;22.00;;;15.00;99.90;;;;;;5037984;28;20235;-50
2021/08/01 06:16:12;;;;;;;48.63;21.50;;;15.10;99.90;;;;;;5034561;28;20712;-50
2021/08/01 06:18:41;;;;;;;45.23;21.87;;;15.20;99.90;;;;;;5038074;28;20196;-50
2021/08/01 06:21:19;;;;;;;49.87;21.90;;;15.20;99.90;;;;;;5037686;28;20645;-50
2021/08/01 06:23:51;;;;;;;45.17;21.57;;;15.40;99.90;;;;;;5032650;28;20287;-50
2021/08/01 06:26:22;;;;;;;48.83;23.77;;;15.30;99.90;;;;;;5039047;28;20314;-50
2021/08/01 06:28:50;;;;;;;48.73;22.10;;;15.30;99.90;;;;;;5036838;28;20368;-50
2021/08/01 06:31:16;;;;;;;47.50;22.37;;;15.30;99.90;;;;;;5036183;28;20251;-50
2021/08/01 06:33:44;;;;;;;51.30;21.83;;;15.40;99.90;;;;;;5031526;28;20347;-50
2021/08/01 06:36:13;;;;;;;49.03;22.07;;;15.40;99.90;;;;;;5031676;28;20205;-50
2021/08/01 06:38:41;;;;;;;51.13;22.17;;;15.40;99.90;;;;;;5038295;28;20605;-50
2021/08/01 06:41:08;;;;;;;52.97;22.87;;;15.30;99.90;;;;;;5034503;28;20299;-50
2021/08/01 06:43:36;;;;;;;48.80;23.37;;;15.40;99.90;;;;;;5033072;28;20225;-50
2021/08/01 06:46:03;;;;;;;50.00;22.40;;;15.50;99.90;;;;;;5031039;28;20297;-50
2021/08/01 06:48:30;;;;;;;51.53;22.27;;;15.50;99.90;;;;;;5034249;28;20675;-51
2021/08/01 06:50:57;;;;;;;47.67;20.80;;;15.50;99.90;;;;;;5036646;28;20312;-50
2021/08/01 06:53:24;;;;;;;49.13;20.70;;;15.50;99.90;;;;;;5036023;28;20345;-50
2021/08/01 06:55:51;;;;;;;45.60;20.27;;;15.60;99.90;;;;;;5038068;28;20677;-50
2021/08/01 06:58:19;;;;;;;50.20;21.57;;;15.60;99.90;;;;;;5035684;28;20347;-50
2021/08/01 07:00:47;;;;;;;45.53;21.43;;;15.70;99.90;;;;;;5035624;28;20685;-50
2021/08/01 07:03:14;;;;;;;41.47;20.30;;;15.60;99.90;;;;;;5031609;28;20245;-50
2021/08/01 07:05:42;;;;;;;43.10;21.47;;;15.50;99.90;;;;;;5033794;28;20750;-50
2021/08/01 07:08:09;;;;;;;46.07;20.17;;;15.50;99.90;;;;;;5036464;28;20202;-50
2021/08/01 07:10:36;;;;;;;43.37;19.33;;;15.60;99.90;;;;;;5038531;28;20547;-50
2021/08/01 07:13:08;;;;;;;43.30;20.43;;;15.80;99.90;;;;;;5033583;28;20303;-50
2021/08/01 07:15:35;;;;;;;41.87;20.87;;;15.80;99.90;;;;;;5030755;28;20294;-50
2021/08/01 07:18:03;;;;;;;42.50;20.43;;;15.80;99.90;;;;;;5028171;28;20201;-50
2021/08/01 07:20:30;;;;;;;44.73;19.43;;;15.90;99.90;;;;;;5032155;28;20292;-50
2021/08/01 07:22:57;;;;;;;44.13;20.87;;;15.90;99.90;;;;;;5036565;28;20295;-50
2021/08/01 07:25:25;;;;;;;43.53;20.97;;;16.00;99.90;;;;;;5038539;28;20209;-50
2021/08/01 07:27:52;;;;;;;37.93;19.10;;;16.00;99.90;;;;;;5036389;28;20323;-51
2021/08/01 07:30:20;;;;;;;50.03;19.90;;;16.10;99.90;;;;;;5038040;28;20257;-50
2021/08/01 07:32:46;;;;;;;44.27;20.57;;;16.10;99.90;;;;;;5030440;28;20321;-51
2021/08/01 07:35:13;;;;;;;44.43;20.27;;;16.10;99.90;;;;;;5030985;28;20306;-50
2021/08/01 07:37:40;;;;;;;44.60;21.47;;;16.20;99.90;;;;;;5038303;28;20312;-51
2021/08/01 07:40:07;;;;;;;41.23;19.43;;;16.10;99.90;;;;;;5038180;28;20564;-50
2021/08/01 07:42:34;;;;;;;40.43;19.87;;;16.10;99.90;;;;;;5037038;28;20309;-50
2021/08/01 07:45:04;;;;;;;44.30;20.83;;;16.20;99.90;;;;;;5030120;28;20214;-50
2021/08/01 07:47:33;;;;;;;43.30;20.13;;;16.20;99.90;;;;;;5035948;28;20232;-50
2021/08/01 07:50:03;;;;;;;39.40;20.37;;;16.20;99.90;;;;;;5033231;28;20657;-50
2021/08/01 07:52:31;;;;;;;37.83;18.93;;;16.30;99.90;;;;;;5035962;28;20308;-50
2021/08/01 07:54:58;;;;;;;49.00;21.57;;;16.40;99.90;;;;;;5035328;28;20211;-50
2021/08/01 07:57:26;;;;;;;42.97;19.90;;;16.40;99.90;;;;;;5040430;28;20243;-50
2021/08/01 07:59:54;;;;;;;40.80;20.27;;;16.40;99.90;;;;;;5036326;28;20590;-50
2021/08/01 08:02:22;;;;;;;42.77;21.97;;;16.50;99.90;;;;;;5042875;28;20695;-51
2021/08/01 08:04:50;;;;;;;39.77;19.13;;;16.60;99.90;;;;;;5031514;28;20377;-50
2021/08/01 08:07:17;;;;;;;43.73;19.17;;;16.50;99.90;;;;;;5033561;28;20257;-50
2021/08/01 08:09:44;;;;;;;38.93;19.17;;;16.60;99.90;;;;;;5033168;28;20349;-50
2021/08/01 08:12:12;;;;;;;40.67;18.77;;;16.60;99.90;;;;;;5037538;28;20268;-50
2021/08/01 08:14:39;;;;;;;39.60;19.50;;;16.80;99.90;;;;;;5027935;28;20284;-50
2021/08/01 08:17:07;;;;;;;43.17;18.93;;;16.80;99.90;;;;;;5031541;28;20206;-50
2021/08/01 08:19:34;;;;;;;37.03;18.80;;;16.80;99.90;;;;;;5032262;28;20363;-50
2021/08/01 08:22:02;;;;;;;38.00;18.03;;;16.80;99.90;;;;;;5041592;28;20194;-50
2021/08/01 08:24:29;;;;;;;37.77;19.30;;;16.90;99.90;;;;;;5024923;28;20287;-50
2021/08/01 08:26:56;;;;;;;32.93;18.63;;;16.90;99.90;;;;;;5033906;28;20237;-51
2021/08/01 08:29:25;;;;;;;38.00;18.50;;;17.00;99.90;;;;;;5035619;28;20281;-50
2021/08/01 08:31:54;;;;;;;32.47;16.67;;;17.00;99.90;;;;;;5037034;28;20765;-50
2021/08/01 08:34:23;;;;;;;35.43;17.17;;;17.20;99.90;;;;;;5033632;28;20366;-50
2021/08/01 08:36:51;;;;;;;34.13;17.53;;;17.30;99.90;;;;;;5039385;28;20242;-50
2021/08/01 08:39:20;;;;;;;33.87;16.50;;;17.40;99.90;;;;;;5041381;28;20193;-50
2021/08/01 08:41:48;;;;;;;31.67;16.13;;;17.50;99.90;;;;;;5035558;28;20231;-50
2021/08/01 08:44:15;;;;;;;32.50;16.43;;;17.60;99.90;;;;;;5033856;28;20588;-50
2021/08/01 08:46:42;;;;;;;32.43;17.07;;;17.60;99.90;;;;;;5034039;28;20630;-50
2021/08/01 08:49:10;;;;;;;28.60;16.30;;;17.40;99.90;;;;;;5033211;28;21350;-50
2021/08/01 08:51:39;;;;;;;28.90;16.33;;;17.50;99.90;;;;;;5035159;28;20693;-50
2021/08/01 08:54:16;;;;;;;32.03;18.33;;;17.60;99.90;;;;;;5029007;28;20613;-50
2021/08/01 08:56:46;;;;;;;28.83;16.23;;;17.60;99.90;;;;;;5036861;28;20306;-50
2021/08/01 08:59:19;;;;;;;30.60;17.67;;;17.70;99.90;;;;;;5034294;28;20227;-50
2021/08/01 09:01:46;;;;;;;28.60;16.77;;;17.80;99.90;;;;;;5038242;28;20643;-50
2021/08/01 09:04:14;;;;;;;33.10;16.30;;;17.90;99.90;;;;;;5030144;28;20508;-50
2021/08/01 09:06:41;;;;;;;29.63;16.53;;;17.90;99.90;;;;;;5035337;28;20291;-51
2021/08/01 09:09:10;;;;;;;35.03;16.70;;;17.90;99.90;;;;;;5030246;28;21578;-50
2021/08/01 09:11:36;;;;;;;30.80;16.00;;;17.80;99.90;;;;;;5036640;28;20646;-50
2021/08/01 09:14:04;;;;;;;26.73;15.07;;;17.70;99.90;;;;;;5033528;28;20717;-50
2021/08/01 09:16:50;;;;;;;28.10;15.70;;;18.00;99.90;;;;;;5032314;28;20704;-50
2021/08/01 09:19:33;;;;;;;26.23;13.90;;;18.40;99.90;;;;;;5028877;28;20225;-50
2021/08/01 09:22:14;;;;;;;25.37;14.43;;;18.50;99.90;;;;;;5031731;28;20211;-50
2021/08/01 09:24:43;;;;;;;28.73;15.53;;;18.40;99.90;;;;;;5028187;28;20343;-50
2021/08/01 09:27:25;;;;;;;25.83;13.60;;;18.60;99.90;;;;;;5032107;28;20973;-50
2021/08/01 09:29:54;;;;;;;25.40;14.93;;;18.70;99.90;;;;;;5032132;28;20284;-51
2021/08/01 09:32:23;;;;;;;25.17;15.87;;;18.60;99.90;;;;;;5034046;28;20224;-50
2021/08/01 09:34:51;;;;;;;27.80;15.40;;;18.60;99.90;;;;;;5020827;28;20205;-50
2021/08/01 09:37:35;;;;;;;29.43;15.37;;;18.50;99.90;;;;;;5032133;28;21093;-50
2021/08/01 09:40:11;;;;;;;27.83;15.47;;;18.40;99.90;;;;;;5028558;28;20203;-51
2021/08/01 09:42:45;;;;;;;23.60;14.07;;;18.40;99.90;;;;;;5029965;28;20189;-51
2021/08/01 09:45:21;;;;;;;28.47;15.50;;;18.40;99.90;;;;;;5031440;28;20292;-51
2021/08/01 09:47:49;;;;;;;29.67;16.47;;;18.40;99.90;;;;;;5029774;28;20208;-53
2021/08/01 09:50:18;;;;;;;28.17;14.73;;;18.40;99.90;;;;;;5032484;28;20219;-50
2021/08/01 09:52:45;;;;;;;27.97;16.20;;;18.60;99.90;;;;;;5031458;28;20705;-49
2021/08/01 09:55:19;;;;;;;27.57;15.50;;;18.60;99.90;;;;;;5034073;28;20705;-50
2021/08/01 09:57:51;;;;;;;25.20;15.30;;;18.60;99.90;;;;;;5030476;28;20513;-50
2021/08/01 10:00:19;;;;;;;27.57;14.80;;;18.80;99.90;;;;;;5037957;28;20208;-50
2021/08/01 10:02:47;;;;;;;25.83;15.87;;;18.60;99.90;;;;;;5042710;28;20207;-50
2021/08/01 10:05:18;;;;;;;30.90;17.30;;;18.50;99.90;;;;;;5040101;28;20258;-50
2021/08/01 10:07:47;;;;;;;27.67;16.83;;;18.50;99.90;;;;;;5034386;28;20235;-53
2021/08/01 10:10:22;;;;;;;27.57;15.73;;;18.50;99.90;;;;;;5042101;28;20270;-50
2021/08/01 10:12:52;;;;;;;27.70;16.63;;;18.30;99.90;;;;;;5036798;28;20245;-50
2021/08/01 10:15:20;;;;;;;26.53;17.33;;;18.30;99.90;;;;;;5036173;28;20207;-50
2021/08/01 10:17:47;;;;;;;22.80;15.63;;;18.30;99.90;;;;;;5040558;28;20212;-50
2021/08/01 10:20:14;;;;;;;28.00;17.33;;;18.40;99.90;;;;;;5029296;28;20617;-50
2021/08/01 10:22:43;;;;;;;28.20;16.97;;;18.50;99.90;;;;;;5032515;28;20324;-50
2021/08/01 10:25:17;;;;;;;27.50;16.10;;;18.30;99.90;;;;;;5040454;28;20349;-50
2021/08/01 10:27:47;;;;;;;30.90;16.90;;;18.10;99.90;;;;;;5042749;28;20279;-50
2021/08/01 10:30:20;;;;;;;21.63;13.80;;;18.10;99.90;;;;;;5037541;28;20224;-50
2021/08/01 10:32:54;;;;;;;27.07;13.77;;;18.20;99.90;;;;;;5036333;28;20273;-50
2021/08/01 10:35:22;;;;;;;24.90;14.37;;;18.40;99.90;;;;;;5033110;28;20200;-50
2021/08/01 10:37:55;;;;;;;23.13;13.57;;;18.30;99.90;;;;;;5040453;28;20241;-50
2021/08/01 10:40:25;;;;;;;23.13;13.27;;;18.40;99.90;;;;;;5040537;28;20239;-50
2021/08/01 10:43:03;;;;;;;25.97;14.60;;;18.40;99.90;;;;;;5039936;28;20523;-50
2021/08/01 10:45:30;;;;;;;23.53;15.57;;;18.40;99.90;;;;;;5033290;28;20286;-50
2021/08/01 10:47:58;;;;;;;22.67;13.90;;;18.50;99.90;;;;;;5033280;28;20284;-50
2021/08/01 10:50:27;;;;;;;16.50;10.83;;;18.30;99.90;;;;;;5029378;28;20621;-50
2021/08/01 10:53:19;;;;;;;14.53;10.23;;;18.20;99.90;;;;;;5029027;28;20312;-50
2021/08/01 10:55:47;;;;;;;12.30;9.33;;;18.00;99.90;;;;;;5036423;28;20878;-50
2021/08/01 10:58:15;;;;;;;13.27;8.70;;;18.20;99.90;;;;;;5031733;28;20597;-50
2021/08/01 11:01:01;;;;;;;11.20;7.10;;;18.10;99.90;;;;;;5031732;28;20233;-50
2021/08/01 11:03:30;;;;;;;11.93;6.67;;;18.10;99.90;;;;;;5032637;28;20209;-50
2021/08/01 11:05:57;;;;;;;10.67;6.57;;;18.10;99.90;;;;;;5029739;28;20235;-50
2021/08/01 11:08:25;;;;;;;9.97;6.20;;;18.20;99.90;;;;;;5037864;28;20594;-50
2021/08/01 11:11:14;;;;;;;9.80;6.73;;;18.10;99.90;;;;;;5034897;28;20428;-50
2021/08/01 11:13:42;;;;;;;7.10;5.80;;;18.30;99.90;;;;;;5032920;28;20310;-50
2021/08/01 11:16:12;;;;;;;6.30;5.13;;;18.30;99.90;;;;;;5035168;28;20322;-50
2021/08/01 11:18:44;;;;;;;6.50;5.03;;;18.30;99.90;;;;;;5034565;28;20593;-49
2021/08/01 11:21:13;;;;;;;8.97;4.83;;;18.70;99.90;;;;;;5035820;28;20231;-50
2021/08/01 11:23:46;;;;;;;7.53;5.10;;;19.20;99.90;;;;;;5031824;28;20891;-50
2021/08/01 11:26:17;;;;;;;7.50;5.10;;;19.50;99.90;;;;;;5034721;28;20251;-50
2021/08/01 11:28:46;;;;;;;7.60;5.70;;;19.80;99.90;;;;;;5031981;28;20209;-50
2021/08/01 11:31:21;;;;;;;7.53;5.80;;;19.60;99.90;;;;;;5023454;28;20770;-50
2021/08/01 11:33:52;;;;;;;7.37;4.53;;;19.60;99.90;;;;;;5029543;28;21379;-50
2021/08/01 11:36:20;;;;;;;5.70;5.10;;;20.30;99.90;;;;;;5033265;28;20206;-50
2021/08/01 11:38:54;;;;;;;8.90;4.63;;;20.20;99.90;;;;;;5030547;28;20623;-50
2021/08/01 11:41:38;;;;;;;9.63;5.50;;;19.90;99.90;;;;;;5030578;28;20563;-49
2021/08/01 11:44:17;;;;;;;5.60;4.70;;;19.70;99.90;;;;;;5026039;28;20204;-49
2021/08/01 11:47:08;;;;;;;7.47;5.40;;;19.60;99.90;;;;;;5033755;28;20318;-50
2021/08/01 11:49:42;;;;;;;7.97;5.30;;;19.40;99.90;;;;;;5032974;28;20294;-50
2021/08/01 11:52:11;;;;;;;6.07;4.80;;;19.30;99.90;;;;;;5036345;28;20250;-50
2021/08/01 11:54:42;;;;;;;7.93;5.30;;;19.30;99.90;;;;;;5033618;28;20310;-50
2021/08/01 11:57:11;;;;;;;6.67;5.23;;;19.30;99.90;;;;;;5031009;28;20283;-52
2021/08/01 11:59:39;;;;;;;8.20;6.00;;;19.20;99.90;;;;;;5030805;28;20275;-52
2021/08/01 12:02:11;;;;;;;7.13;5.80;;;19.10;99.90;;;;;;5031269;28;20306;-49
2021/08/01 12:04:39;;;;;;;6.00;5.40;;;18.90;99.90;;;;;;5028070;28;20242;-50
2021/08/01 12:07:06;;;;;;;6.83;4.97;;;18.70;99.90;;;;;;5036927;28;20312;-50
2021/08/01 12:09:38;;;;;;;2.90;2.70;;;18.60;99.90;;;;;;5034883;28;20239;-50
2021/08/01 12:12:07;;;;;;;2.80;2.60;;;18.30;99.90;;;;;;5040527;28;20628;-51
2021/08/01 12:14:36;;;;;;;3.20;2.90;;;18.30;99.90;;;;;;5031956;28;20861;-50
2021/08/01 12:17:07;;;;;;;2.70;2.40;;;18.30;99.90;;;;;;5029909;28;20191;-51
2021/08/01 12:19:47;;;;;;;2.00;1.90;;;18.30;99.90;;;;;;5031822;28;20286;-50
2021/08/01 12:22:22;;;;;;;1.97;1.87;;;18.00;99.90;;;;;;5039431;28;20229;-50
2021/08/01 12:24:50;;;;;;;2.17;1.97;;;17.80;99.90;;;;;;5035870;28;20297;-50
2021/08/01 12:27:18;;;;;;;2.33;1.90;;;17.50;99.90;;;;;;5034888;28;20232;-50
2021/08/01 12:29:48;;;;;;;3.63;2.10;;;17.40;99.90;;;;;;5031964;28;20524;-50
2021/08/01 12:32:44;;;;;;;5.77;2.13;;;17.30;99.90;;;;;;5037199;28;20263;-50
2021/08/01 12:35:23;;;;;;;4.70;2.57;;;17.40;99.90;;;;;;5037447;28;20327;-50
2021/08/01 12:38:05;;;;;;;2.57;2.37;;;17.50;99.90;;;;;;5039579;28;20336;-50
2021/08/01 12:40:37;;;;;;;3.73;2.63;;;17.70;99.90;;;;;;5036020;28;20627;-50
2021/08/01 12:43:23;;;;;;;2.60;2.40;;;17.80;99.90;;;;;;5037828;28;20203;-50
2021/08/01 12:45:51;;;;;;;2.67;2.20;;;17.50;99.90;;;;;;5041885;28;20239;-50
2021/08/01 12:48:24;;;;;;;3.27;2.63;;;17.40;99.90;;;;;;5034700;28;20302;-50
2021/08/01 12:50:55;;;;;;;3.10;2.53;;;17.30;99.90;;;;;;5033829;28;20302;-50